This is the latest recevied weather packets stored in our database for station/object OM2RC-6. If no packets are shown the sender has not sent any weather packets the latest 10 day(s).
| Time | Temp. | Humidity | Pressure | Rain* | Wind** | Luminosity | Snow |
|---|---|---|---|---|---|---|---|
| 1777665268 | 11.67° C | 91% | 1026.9 hPa | - | - | - | - |
| 1777664061 | 12.22° C | 89% | 1026.9 hPa | - | - | - | - |
| 1777663761 | 12.22° C | 88% | 1026.8 hPa | - | - | - | - |
| 1777663459 | 12.22° C | 87% | 1026.7 hPa | - | - | - | - |
| 1777663158 | 12.22° C | 86% | 1026.8 hPa | - | - | - | - |
| 1777662857 | 12.78° C | 84% | 1026.7 hPa | - | - | - | - |
| 1777662255 | 12.78° C | 83% | 1026.6 hPa | - | - | - | - |
| 1777661954 | 12.78° C | 83% | 1026.6 hPa | - | - | - | - |
| 1777661653 | 12.78° C | 82% | 1026.6 hPa | - | - | - | - |
| 1777661353 | 13.33° C | 82% | 1026.5 hPa | - | - | - | - |
| 1777661052 | 12.78° C | 83% | 1026.5 hPa | - | - | - | - |
| 1777660751 | 13.33° C | 82% | 1026.5 hPa | - | - | - | - |
| 1777660148 | 13.33° C | 81% | 1026.4 hPa | - | - | - | - |
| 1777659847 | 13.33° C | 82% | 1026.3 hPa | - | - | - | - |
| 1777659547 | 13.89° C | 79% | 1026.2 hPa | - | - | - | - |
| 1777658940 | 14.44° C | 75% | 1026.1 hPa | - | - | - | - |
| 1777658639 | 15° C | 73% | 1026.1 hPa | - | - | - | - |
| 1777658339 | 15.56° C | 71% | 1026.1 hPa | - | - | - | - |
| 1777658037 | 16.11° C | 68% | 1026 hPa | - | - | - | - |
| 1777657736 | 17.22° C | 60% | 1025.9 hPa | - | - | - | - |
| 1777657435 | 18.89° C | 48% | 1025.9 hPa | - | - | - | - |
| 1777657134 | 18.89° C | 47% | 1026 hPa | - | - | - | - |
| 1777656833 | 20° C | 45% | 1025.9 hPa | - | - | - | - |
| 1777656532 | 20° C | 45% | 1025.8 hPa | - | - | - | - |
| 1777655629 | 20.56° C | 42% | 1025.8 hPa | - | - | - | - |
* Rain since midnight (hover to see other rain measurements)
** Current wind speed in m/s (hover to see current wind gust speed)